sensor_id;sensor_type;location;lat;lon;timestamp;temperature;humidity
73149;SHT30;61346;48.930;2.266;2022-07-21T00:00:44;22.52;66.72
73149;SHT30;61346;48.930;2.266;2022-07-21T00:03:10;22.54;66.85
73149;SHT30;61346;48.930;2.266;2022-07-21T00:05:35;22.54;66.91
73149;SHT30;61346;48.930;2.266;2022-07-21T00:08:00;22.55;67.02
73149;SHT30;61346;48.930;2.266;2022-07-21T00:10:26;22.55;66.91
73149;SHT30;61346;48.930;2.266;2022-07-21T00:12:54;22.55;66.57
73149;SHT30;61346;48.930;2.266;2022-07-21T00:15:21;22.50;66.78
73149;SHT30;61346;48.930;2.266;2022-07-21T00:17:47;22.45;67.73
73149;SHT30;61346;48.930;2.266;2022-07-21T00:20:14;22.41;67.43
73149;SHT30;61346;48.930;2.266;2022-07-21T00:22:40;22.38;67.90
73149;SHT30;61346;48.930;2.266;2022-07-21T00:25:07;22.34;67.61
73149;SHT30;61346;48.930;2.266;2022-07-21T00:27:32;22.31;68.20
73149;SHT30;61346;48.930;2.266;2022-07-21T00:29:58;22.29;67.94
73149;SHT30;61346;48.930;2.266;2022-07-21T00:32:26;22.20;68.28
73149;SHT30;61346;48.930;2.266;2022-07-21T00:34:52;22.13;68.23
73149;SHT30;61346;48.930;2.266;2022-07-21T00:37:19;22.07;68.33
73149;SHT30;61346;48.930;2.266;2022-07-21T00:39:44;22.03;68.81
73149;SHT30;61346;48.930;2.266;2022-07-21T00:42:23;21.97;68.69
73149;SHT30;61346;48.930;2.266;2022-07-21T00:44:49;21.92;68.63
73149;SHT30;61346;48.930;2.266;2022-07-21T00:47:18;21.90;68.73
73149;SHT30;61346;48.930;2.266;2022-07-21T00:49:43;21.89;69.16
73149;SHT30;61346;48.930;2.266;2022-07-21T00:52:12;21.83;69.23
73149;SHT30;61346;48.930;2.266;2022-07-21T00:54:39;21.83;69.26
73149;SHT30;61346;48.930;2.266;2022-07-21T00:57:07;21.78;69.14
73149;SHT30;61346;48.930;2.266;2022-07-21T00:59:34;21.78;69.26
73149;SHT30;61346;48.930;2.266;2022-07-21T01:01:59;21.78;69.53
73149;SHT30;61346;48.930;2.266;2022-07-21T01:04:25;21.74;69.42
73149;SHT30;61346;48.930;2.266;2022-07-21T01:06:52;21.76;69.40
73149;SHT30;61346;48.930;2.266;2022-07-21T01:09:21;21.76;69.42
73149;SHT30;61346;48.930;2.266;2022-07-21T01:11:47;21.74;69.48
73149;SHT30;61346;48.930;2.266;2022-07-21T01:14:13;21.72;69.51
73149;SHT30;61346;48.930;2.266;2022-07-21T01:16:40;21.71;69.57
73149;SHT30;61346;48.930;2.266;2022-07-21T01:19:06;21.65;69.73
73149;SHT30;61346;48.930;2.266;2022-07-21T01:21:37;21.63;69.80
73149;SHT30;61346;48.930;2.266;2022-07-21T01:24:04;21.62;70.10
73149;SHT30;61346;48.930;2.266;2022-07-21T01:26:40;21.58;69.86
73149;SHT30;61346;48.930;2.266;2022-07-21T01:29:06;21.54;70.63
73149;SHT30;61346;48.930;2.266;2022-07-21T01:31:31;21.51;70.12
73149;SHT30;61346;48.930;2.266;2022-07-21T01:33:56;21.47;70.24
73149;SHT30;61346;48.930;2.266;2022-07-21T01:36:22;21.44;70.63
73149;SHT30;61346;48.930;2.266;2022-07-21T01:38:51;21.47;70.59
73149;SHT30;61346;48.930;2.266;2022-07-21T01:41:35;21.45;70.57
73149;SHT30;61346;48.930;2.266;2022-07-21T01:44:13;21.45;70.59
73149;SHT30;61346;48.930;2.266;2022-07-21T01:46:47;21.44;70.84
73149;SHT30;61346;48.930;2.266;2022-07-21T01:49:14;21.41;70.71
73149;SHT30;61346;48.930;2.266;2022-07-21T01:51:40;21.42;71.02
73149;SHT30;61346;48.930;2.266;2022-07-21T01:54:07;21.39;71.11
73149;SHT30;61346;48.930;2.266;2022-07-21T01:56:35;21.37;70.87
73149;SHT30;61346;48.930;2.266;2022-07-21T01:59:00;21.34;71.14
73149;SHT30;61346;48.930;2.266;2022-07-21T02:01:28;21.32;71.15
73149;SHT30;61346;48.930;2.266;2022-07-21T02:03:55;21.31;71.34
73149;SHT30;61346;48.930;2.266;2022-07-21T02:06:22;21.28;71.45
73149;SHT30;61346;48.930;2.266;2022-07-21T02:08:48;21.23;72.87
73149;SHT30;61346;48.930;2.266;2022-07-21T02:11:16;21.23;71.73
73149;SHT30;61346;48.930;2.266;2022-07-21T02:13:42;21.21;71.59
73149;SHT30;61346;48.930;2.266;2022-07-21T02:16:08;21.17;72.86
73149;SHT30;61346;48.930;2.266;2022-07-21T02:18:34;21.11;72.40
73149;SHT30;61346;48.930;2.266;2022-07-21T02:20:59;21.08;72.50
73149;SHT30;61346;48.930;2.266;2022-07-21T02:23:25;21.01;72.36
73149;SHT30;61346;48.930;2.266;2022-07-21T02:25:50;21.01;73.90
73149;SHT30;61346;48.930;2.266;2022-07-21T02:28:18;20.99;73.90
73149;SHT30;61346;48.930;2.266;2022-07-21T02:30:43;20.93;73.19
73149;SHT30;61346;48.930;2.266;2022-07-21T02:33:09;20.92;72.85
73149;SHT30;61346;48.930;2.266;2022-07-21T02:35:34;20.90;72.84
73149;SHT30;61346;48.930;2.266;2022-07-21T02:38:00;20.90;72.97
73149;SHT30;61346;48.930;2.266;2022-07-21T02:40:25;20.90;73.11
73149;SHT30;61346;48.930;2.266;2022-07-21T02:42:51;20.89;72.59
73149;SHT30;61346;48.930;2.266;2022-07-21T02:45:16;20.92;72.81
73149;SHT30;61346;48.930;2.266;2022-07-21T02:48:03;20.93;73.22
73149;SHT30;61346;48.930;2.266;2022-07-21T02:50:32;20.94;72.61
73149;SHT30;61346;48.930;2.266;2022-07-21T02:53:02;20.99;74.12
73149;SHT30;61346;48.930;2.266;2022-07-21T02:55:30;21.01;72.76
73149;SHT30;61346;48.930;2.266;2022-07-21T02:58:14;21.01;72.83
73149;SHT30;61346;48.930;2.266;2022-07-21T03:00:43;21.06;73.04
73149;SHT30;61346;48.930;2.266;2022-07-21T03:03:12;21.07;72.59
73149;SHT30;61346;48.930;2.266;2022-07-21T03:05:40;21.04;73.45
73149;SHT30;61346;48.930;2.266;2022-07-21T03:08:08;20.99;72.66
73149;SHT30;61346;48.930;2.266;2022-07-21T03:10:34;20.99;72.90
73149;SHT30;61346;48.930;2.266;2022-07-21T03:13:00;20.97;72.50
73149;SHT30;61346;48.930;2.266;2022-07-21T03:15:26;20.97;72.35
73149;SHT30;61346;48.930;2.266;2022-07-21T03:17:53;20.97;72.34
73149;SHT30;61346;48.930;2.266;2022-07-21T03:20:19;20.99;72.33
73149;SHT30;61346;48.930;2.266;2022-07-21T03:22:44;20.99;72.68
73149;SHT30;61346;48.930;2.266;2022-07-21T03:25:11;21.01;72.05
73149;SHT30;61346;48.930;2.266;2022-07-21T03:27:36;21.04;72.09
73149;SHT30;61346;48.930;2.266;2022-07-21T03:30:04;21.01;72.02
73149;SHT30;61346;48.930;2.266;2022-07-21T03:32:31;21.04;72.07
73149;SHT30;61346;48.930;2.266;2022-07-21T03:34:58;21.00;71.91
73149;SHT30;61346;48.930;2.266;2022-07-21T03:37:24;20.94;72.85
73149;SHT30;61346;48.930;2.266;2022-07-21T03:39:52;20.93;72.27
73149;SHT30;61346;48.930;2.266;2022-07-21T03:42:18;20.92;72.73
73149;SHT30;61346;48.930;2.266;2022-07-21T03:44:43;20.86;72.10
73149;SHT30;61346;48.930;2.266;2022-07-21T03:47:11;20.83;72.23
73149;SHT30;61346;48.930;2.266;2022-07-21T03:49:37;20.84;72.36
73149;SHT30;61346;48.930;2.266;2022-07-21T03:52:03;20.84;72.22
73149;SHT30;61346;48.930;2.266;2022-07-21T03:54:30;20.89;72.69
73149;SHT30;61346;48.930;2.266;2022-07-21T03:56:56;20.86;72.24
73149;SHT30;61346;48.930;2.266;2022-07-21T03:59:21;20.90;72.27
73149;SHT30;61346;48.930;2.266;2022-07-21T04:01:47;20.93;72.18
73149;SHT30;61346;48.930;2.266;2022-07-21T04:04:15;20.93;72.04
73149;SHT30;61346;48.930;2.266;2022-07-21T04:06:40;20.96;72.23
73149;SHT30;61346;48.930;2.266;2022-07-21T04:09:05;20.94;71.94
73149;SHT30;61346;48.930;2.266;2022-07-21T04:11:31;20.97;72.04
73149;SHT30;61346;48.930;2.266;2022-07-21T04:13:57;20.94;72.90
73149;SHT30;61346;48.930;2.266;2022-07-21T04:16:25;20.94;72.14
73149;SHT30;61346;48.930;2.266;2022-07-21T04:18:52;20.87;72.50
73149;SHT30;61346;48.930;2.266;2022-07-21T04:21:17;20.87;72.01
73149;SHT30;61346;48.930;2.266;2022-07-21T04:23:42;20.86;72.06
73149;SHT30;61346;48.930;2.266;2022-07-21T04:26:08;20.84;73.22
73149;SHT30;61346;48.930;2.266;2022-07-21T04:28:34;20.84;72.42
73149;SHT30;61346;48.930;2.266;2022-07-21T04:30:59;20.77;72.68
73149;SHT30;61346;48.930;2.266;2022-07-21T04:33:26;20.79;72.70
73149;SHT30;61346;48.930;2.266;2022-07-21T04:35:51;20.82;72.72
73149;SHT30;61346;48.930;2.266;2022-07-21T04:38:16;20.84;72.45
73149;SHT30;61346;48.930;2.266;2022-07-21T04:40:43;20.84;72.46
73149;SHT30;61346;48.930;2.266;2022-07-21T04:43:09;20.83;72.29
73149;SHT30;61346;48.930;2.266;2022-07-21T04:45:34;20.80;72.37
73149;SHT30;61346;48.930;2.266;2022-07-21T04:48:00;20.79;72.47
73149;SHT30;61346;48.930;2.266;2022-07-21T04:50:27;20.77;72.32
73149;SHT30;61346;48.930;2.266;2022-07-21T04:52:53;20.76;72.87
73149;SHT30;61346;48.930;2.266;2022-07-21T04:55:19;20.76;72.68
73149;SHT30;61346;48.930;2.266;2022-07-21T04:57:47;20.75;72.81
73149;SHT30;61346;48.930;2.266;2022-07-21T05:00:19;20.79;73.50
73149;SHT30;61346;48.930;2.266;2022-07-21T05:02:45;20.77;72.76
73149;SHT30;61346;48.930;2.266;2022-07-21T05:05:11;20.76;72.61
73149;SHT30;61346;48.930;2.266;2022-07-21T05:07:37;20.76;72.95
73149;SHT30;61346;48.930;2.266;2022-07-21T05:10:06;20.77;73.74
73149;SHT30;61346;48.930;2.266;2022-07-21T05:12:32;20.79;74.00
73149;SHT30;61346;48.930;2.266;2022-07-21T05:14:58;20.77;73.41
73149;SHT30;61346;48.930;2.266;2022-07-21T05:17:24;20.77;73.10
73149;SHT30;61346;48.930;2.266;2022-07-21T05:19:49;20.80;73.02
73149;SHT30;61346;48.930;2.266;2022-07-21T05:22:16;20.89;72.86
73149;SHT30;61346;48.930;2.266;2022-07-21T05:24:42;20.96;73.35
73149;SHT30;61346;48.930;2.266;2022-07-21T05:27:07;21.00;72.70
73149;SHT30;61346;48.930;2.266;2022-07-21T05:29:33;21.01;72.66
73149;SHT30;61346;48.930;2.266;2022-07-21T05:31:58;21.08;72.56
73149;SHT30;61346;48.930;2.266;2022-07-21T05:34:24;21.12;72.14
73149;SHT30;61346;48.930;2.266;2022-07-21T05:36:51;21.17;72.34
73149;SHT30;61346;48.930;2.266;2022-07-21T05:39:18;21.21;72.71
73149;SHT30;61346;48.930;2.266;2022-07-21T05:41:44;21.23;72.49
73149;SHT30;61346;48.930;2.266;2022-07-21T05:44:09;21.24;72.28
73149;SHT30;61346;48.930;2.266;2022-07-21T05:46:35;21.23;72.65
73149;SHT30;61346;48.930;2.266;2022-07-21T05:49:00;21.23;72.55
73149;SHT30;61346;48.930;2.266;2022-07-21T05:51:26;21.23;72.47
73149;SHT30;61346;48.930;2.266;2022-07-21T05:53:51;21.24;72.16
73149;SHT30;61346;48.930;2.266;2022-07-21T05:56:17;21.24;72.22
73149;SHT30;61346;48.930;2.266;2022-07-21T05:58:42;21.30;72.32
73149;SHT30;61346;48.930;2.266;2022-07-21T06:01:09;21.31;72.24
73149;SHT30;61346;48.930;2.266;2022-07-21T06:03:44;21.38;72.46
73149;SHT30;61346;48.930;2.266;2022-07-21T06:06:11;21.39;72.13
73149;SHT30;61346;48.930;2.266;2022-07-21T06:08:39;21.42;72.25
73149;SHT30;61346;48.930;2.266;2022-07-21T06:11:06;21.52;72.36
73149;SHT30;61346;48.930;2.266;2022-07-21T06:13:32;21.54;72.04
73149;SHT30;61346;48.930;2.266;2022-07-21T06:15:57;21.56;71.70
73149;SHT30;61346;48.930;2.266;2022-07-21T06:18:22;21.62;71.77
73149;SHT30;61346;48.930;2.266;2022-07-21T06:20:48;21.69;71.76
73149;SHT30;61346;48.930;2.266;2022-07-21T06:23:13;21.75;71.34
73149;SHT30;61346;48.930;2.266;2022-07-21T06:25:39;21.85;71.25
73149;SHT30;61346;48.930;2.266;2022-07-21T06:28:05;21.81;71.08
73149;SHT30;61346;48.930;2.266;2022-07-21T06:30:30;21.76;71.40
73149;SHT30;61346;48.930;2.266;2022-07-21T06:32:56;21.76;71.31
73149;SHT30;61346;48.930;2.266;2022-07-21T06:35:21;21.81;71.09
73149;SHT30;61346;48.930;2.266;2022-07-21T06:37:50;21.86;71.22
73149;SHT30;61346;48.930;2.266;2022-07-21T06:40:15;21.93;70.91
73149;SHT30;61346;48.930;2.266;2022-07-21T06:42:40;22.03;70.77
73149;SHT30;61346;48.930;2.266;2022-07-21T06:45:06;22.12;70.45
73149;SHT30;61346;48.930;2.266;2022-07-21T06:47:33;22.20;70.23
73149;SHT30;61346;48.930;2.266;2022-07-21T06:50:00;22.25;70.30
73149;SHT30;61346;48.930;2.266;2022-07-21T06:52:32;22.31;69.69
73149;SHT30;61346;48.930;2.266;2022-07-21T06:54:58;22.37;69.85
73149;SHT30;61346;48.930;2.266;2022-07-21T06:57:23;22.44;69.61
73149;SHT30;61346;48.930;2.266;2022-07-21T06:59:49;22.45;69.44
73149;SHT30;61346;48.930;2.266;2022-07-21T07:02:15;22.54;69.51
73149;SHT30;61346;48.930;2.266;2022-07-21T07:04:40;22.62;69.22
73149;SHT30;61346;48.930;2.266;2022-07-21T07:07:06;22.73;69.06
73149;SHT30;61346;48.930;2.266;2022-07-21T07:09:31;22.85;68.58
73149;SHT30;61346;48.930;2.266;2022-07-21T07:11:57;22.88;68.38
73149;SHT30;61346;48.930;2.266;2022-07-21T07:14:31;22.91;68.44
73149;SHT30;61346;48.930;2.266;2022-07-21T07:16:58;22.91;68.48
73149;SHT30;61346;48.930;2.266;2022-07-21T07:19:23;22.95;68.27
73149;SHT30;61346;48.930;2.266;2022-07-21T07:21:49;22.98;68.34
73149;SHT30;61346;48.930;2.266;2022-07-21T07:24:14;22.99;68.17
73149;SHT30;61346;48.930;2.266;2022-07-21T07:26:40;23.03;68.30
73149;SHT30;61346;48.930;2.266;2022-07-21T07:29:05;23.05;68.14
73149;SHT30;61346;48.930;2.266;2022-07-21T07:31:31;23.06;67.88
73149;SHT30;61346;48.930;2.266;2022-07-21T07:33:57;23.06;68.01
73149;SHT30;61346;48.930;2.266;2022-07-21T07:36:26;23.06;67.92
73149;SHT30;61346;48.930;2.266;2022-07-21T07:38:54;23.14;67.82
73149;SHT30;61346;48.930;2.266;2022-07-21T07:41:23;23.23;67.55
73149;SHT30;61346;48.930;2.266;2022-07-21T07:43:49;23.33;67.45
73149;SHT30;61346;48.930;2.266;2022-07-21T07:46:18;23.44;67.20
73149;SHT30;61346;48.930;2.266;2022-07-21T07:48:45;23.50;67.02
73149;SHT30;61346;48.930;2.266;2022-07-21T07:51:13;23.65;66.45
73149;SHT30;61346;48.930;2.266;2022-07-21T07:53:39;23.71;66.25
73149;SHT30;61346;48.930;2.266;2022-07-21T07:56:05;23.86;66.15
73149;SHT30;61346;48.930;2.266;2022-07-21T07:58:31;23.96;65.69
73149;SHT30;61346;48.930;2.266;2022-07-21T08:00:56;24.10;65.49
73149;SHT30;61346;48.930;2.266;2022-07-21T08:03:23;24.20;64.83
73149;SHT30;61346;48.930;2.266;2022-07-21T08:05:49;24.17;64.90
73149;SHT30;61346;48.930;2.266;2022-07-21T08:08:15;24.12;64.71
73149;SHT30;61346;48.930;2.266;2022-07-21T08:10:42;24.13;65.12
73149;SHT30;61346;48.930;2.266;2022-07-21T08:13:12;24.15;64.61
73149;SHT30;61346;48.930;2.266;2022-07-21T08:15:38;24.13;64.75
73149;SHT30;61346;48.930;2.266;2022-07-21T08:18:04;24.19;64.62
73149;SHT30;61346;48.930;2.266;2022-07-21T08:20:33;24.19;64.15
73149;SHT30;61346;48.930;2.266;2022-07-21T08:22:58;24.26;64.35
73149;SHT30;61346;48.930;2.266;2022-07-21T08:25:24;24.37;63.62
73149;SHT30;61346;48.930;2.266;2022-07-21T08:27:49;24.47;63.81
73149;SHT30;61346;48.930;2.266;2022-07-21T08:30:15;24.46;63.42
73149;SHT30;61346;48.930;2.266;2022-07-21T08:32:40;24.43;63.93
73149;SHT30;61346;48.930;2.266;2022-07-21T08:35:06;24.57;63.24
73149;SHT30;61346;48.930;2.266;2022-07-21T08:37:38;24.57;62.98
73149;SHT30;61346;48.930;2.266;2022-07-21T08:40:04;24.46;63.38
73149;SHT30;61346;48.930;2.266;2022-07-21T08:42:31;24.49;63.48
73149;SHT30;61346;48.930;2.266;2022-07-21T08:44:56;24.50;63.48
73149;SHT30;61346;48.930;2.266;2022-07-21T08:47:24;24.49;63.36
73149;SHT30;61346;48.930;2.266;2022-07-21T08:49:49;24.43;63.20
73149;SHT30;61346;48.930;2.266;2022-07-21T08:52:16;24.50;63.63
73149;SHT30;61346;48.930;2.266;2022-07-21T08:54:43;24.80;62.70
73149;SHT30;61346;48.930;2.266;2022-07-21T08:57:09;25.02;62.22
73149;SHT30;61346;48.930;2.266;2022-07-21T08:59:34;25.16;61.48
73149;SHT30;61346;48.930;2.266;2022-07-21T09:02:00;25.12;61.00
73149;SHT30;61346;48.930;2.266;2022-07-21T09:04:35;25.09;61.38
73149;SHT30;61346;48.930;2.266;2022-07-21T09:07:06;25.15;61.49
73149;SHT30;61346;48.930;2.266;2022-07-21T09:09:33;25.26;61.15
73149;SHT30;61346;48.930;2.266;2022-07-21T09:12:00;25.49;61.18
73149;SHT30;61346;48.930;2.266;2022-07-21T09:14:30;25.64;60.55
73149;SHT30;61346;48.930;2.266;2022-07-21T09:17:02;25.71;59.61
73149;SHT30;61346;48.930;2.266;2022-07-21T09:19:34;25.74;59.53
73149;SHT30;61346;48.930;2.266;2022-07-21T09:22:03;25.75;59.77
73149;SHT30;61346;48.930;2.266;2022-07-21T09:24:36;25.78;59.56
73149;SHT30;61346;48.930;2.266;2022-07-21T09:27:20;25.82;59.89
73149;SHT30;61346;48.930;2.266;2022-07-21T09:29:50;25.90;59.86
73149;SHT30;61346;48.930;2.266;2022-07-21T09:32:28;26.08;59.55
73149;SHT30;61346;48.930;2.266;2022-07-21T09:35:06;26.15;58.26
73149;SHT30;61346;48.930;2.266;2022-07-21T09:37:32;26.21;58.77
73149;SHT30;61346;48.930;2.266;2022-07-21T09:40:01;26.29;58.56
73149;SHT30;61346;48.930;2.266;2022-07-21T09:42:39;26.42;58.54
73149;SHT30;61346;48.930;2.266;2022-07-21T09:45:10;26.46;57.48
73149;SHT30;61346;48.930;2.266;2022-07-21T09:47:37;26.45;57.84
73149;SHT30;61346;48.930;2.266;2022-07-21T09:50:06;26.37;57.46
73149;SHT30;61346;48.930;2.266;2022-07-21T09:52:37;26.40;57.35
73149;SHT30;61346;48.930;2.266;2022-07-21T09:55:11;26.46;58.09
73149;SHT30;61346;48.930;2.266;2022-07-21T09:57:39;26.63;57.54
73149;SHT30;61346;48.930;2.266;2022-07-21T10:00:07;26.83;56.54
73149;SHT30;61346;48.930;2.266;2022-07-21T10:02:34;26.81;56.62
73149;SHT30;61346;48.930;2.266;2022-07-21T10:05:08;26.77;57.24
73149;SHT30;61346;48.930;2.266;2022-07-21T10:07:40;26.84;57.44
73149;SHT30;61346;48.930;2.266;2022-07-21T10:10:06;26.79;57.23
73149;SHT30;61346;48.930;2.266;2022-07-21T10:12:32;26.83;57.14
73149;SHT30;61346;48.930;2.266;2022-07-21T10:14:57;26.69;57.25
73149;SHT30;61346;48.930;2.266;2022-07-21T10:17:24;26.69;57.02
73149;SHT30;61346;48.930;2.266;2022-07-21T10:20:08;26.72;57.14
73149;SHT30;61346;48.930;2.266;2022-07-21T10:25:21;26.31;57.29
73149;SHT30;61346;48.930;2.266;2022-07-21T10:28:16;26.28;57.46
73149;SHT30;61346;48.930;2.266;2022-07-21T10:30:48;26.35;57.62
73149;SHT30;61346;48.930;2.266;2022-07-21T10:33:17;26.45;57.22
73149;SHT30;61346;48.930;2.266;2022-07-21T10:35:45;26.56;57.28
73149;SHT30;61346;48.930;2.266;2022-07-21T10:38:40;26.56;56.93
73149;SHT30;61346;48.930;2.266;2022-07-21T10:41:06;26.47;56.97
73149;SHT30;61346;48.930;2.266;2022-07-21T10:45:58;26.24;58.20
73149;SHT30;61346;48.930;2.266;2022-07-21T10:51:13;26.63;57.28
73149;SHT30;61346;48.930;2.266;2022-07-21T10:53:39;26.83;56.67
73149;SHT30;61346;48.930;2.266;2022-07-21T10:56:06;26.95;56.06
73149;SHT30;61346;48.930;2.266;2022-07-21T11:01:02;27.19;55.20
73149;SHT30;61346;48.930;2.266;2022-07-21T11:03:33;27.31;55.82
73149;SHT30;61346;48.930;2.266;2022-07-21T11:08:39;27.86;54.78
73149;SHT30;61346;48.930;2.266;2022-07-21T11:11:23;28.12;53.99
73149;SHT30;61346;48.930;2.266;2022-07-21T11:19:35;28.21;53.52
73149;SHT30;61346;48.930;2.266;2022-07-21T11:22:09;28.21;52.20
73149;SHT30;61346;48.930;2.266;2022-07-21T11:24:35;28.12;53.11
73149;SHT30;61346;48.930;2.266;2022-07-21T11:27:13;28.25;51.96
73149;SHT30;61346;48.930;2.266;2022-07-21T11:29:41;28.25;52.46
73149;SHT30;61346;48.930;2.266;2022-07-21T11:32:08;28.14;52.48
73149;SHT30;61346;48.930;2.266;2022-07-21T11:37:13;27.70;52.89
73149;SHT30;61346;48.930;2.266;2022-07-21T11:39:40;27.63;53.35
73149;SHT30;61346;48.930;2.266;2022-07-21T11:42:11;27.71;52.27
73149;SHT30;61346;48.930;2.266;2022-07-21T11:44:37;28.07;52.67
73149;SHT30;61346;48.930;2.266;2022-07-21T11:47:04;28.48;51.17
73149;SHT30;61346;48.930;2.266;2022-07-21T11:49:31;28.76;50.76
73149;SHT30;61346;48.930;2.266;2022-07-21T11:52:04;28.80;50.68
73149;SHT30;61346;48.930;2.266;2022-07-21T11:54:48;28.75;50.10
73149;SHT30;61346;48.930;2.266;2022-07-21T11:57:16;28.76;50.30
73149;SHT30;61346;48.930;2.266;2022-07-21T11:59:42;28.75;49.68
73149;SHT30;61346;48.930;2.266;2022-07-21T12:04:48;29.07;49.70
73149;SHT30;61346;48.930;2.266;2022-07-21T12:07:40;29.14;48.37
73149;SHT30;61346;48.930;2.266;2022-07-21T12:10:09;29.04;48.78
73149;SHT30;61346;48.930;2.266;2022-07-21T12:12:47;29.08;48.76
73149;SHT30;61346;48.930;2.266;2022-07-21T12:17:42;29.54;48.88
73149;SHT30;61346;48.930;2.266;2022-07-21T12:20:09;29.44;47.70
73149;SHT30;61346;48.930;2.266;2022-07-21T12:22:44;29.17;48.68
73149;SHT30;61346;48.930;2.266;2022-07-21T12:25:13;29.08;48.79
73149;SHT30;61346;48.930;2.266;2022-07-21T12:27:41;29.13;48.98
73149;SHT30;61346;48.930;2.266;2022-07-21T12:30:09;29.55;49.62
73149;SHT30;61346;48.930;2.266;2022-07-21T12:32:49;30.14;47.64
73149;SHT30;61346;48.930;2.266;2022-07-21T12:35:28;30.30;48.81
73149;SHT30;61346;48.930;2.266;2022-07-21T12:40:19;30.81;46.53
73149;SHT30;61346;48.930;2.266;2022-07-21T12:42:46;30.61;46.49
73149;SHT30;61346;48.930;2.266;2022-07-21T12:45:17;30.48;47.14
73149;SHT30;61346;48.930;2.266;2022-07-21T12:47:43;30.44;47.14
73149;SHT30;61346;48.930;2.266;2022-07-21T12:50:14;30.48;47.23
73149;SHT30;61346;48.930;2.266;2022-07-21T12:52:40;30.44;47.42
73149;SHT30;61346;48.930;2.266;2022-07-21T12:55:06;30.37;47.29
73149;SHT30;61346;48.930;2.266;2022-07-21T12:57:33;30.33;47.83
73149;SHT30;61346;48.930;2.266;2022-07-21T12:59:59;30.28;47.70
73149;SHT30;61346;48.930;2.266;2022-07-21T13:02:26;30.20;47.35
73149;SHT30;61346;48.930;2.266;2022-07-21T13:04:52;30.18;47.63
73149;SHT30;61346;48.930;2.266;2022-07-21T13:07:18;30.27;47.28
73149;SHT30;61346;48.930;2.266;2022-07-21T13:09:44;30.44;46.70
73149;SHT30;61346;48.930;2.266;2022-07-21T13:12:12;30.40;46.68
73149;SHT30;61346;48.930;2.266;2022-07-21T13:14:39;30.28;45.64
73149;SHT30;61346;48.930;2.266;2022-07-21T13:17:04;30.21;45.85
73149;SHT30;61346;48.930;2.266;2022-07-21T13:19:30;30.30;44.94
73149;SHT30;61346;48.930;2.266;2022-07-21T13:21:56;30.35;45.26
73149;SHT30;61346;48.930;2.266;2022-07-21T13:24:21;30.51;45.77
73149;SHT30;61346;48.930;2.266;2022-07-21T13:26:47;30.92;45.54
73149;SHT30;61346;48.930;2.266;2022-07-21T13:29:15;31.29;43.23
73149;SHT30;61346;48.930;2.266;2022-07-21T13:31:41;31.68;43.85
73149;SHT30;61346;48.930;2.266;2022-07-21T13:34:06;31.92;43.52
73149;SHT30;61346;48.930;2.266;2022-07-21T13:36:36;32.23;43.60
73149;SHT30;61346;48.930;2.266;2022-07-21T13:39:04;32.59;42.78
73149;SHT30;61346;48.930;2.266;2022-07-21T13:41:30;32.73;42.50
73149;SHT30;61346;48.930;2.266;2022-07-21T13:43:56;32.61;41.17
73149;SHT30;61346;48.930;2.266;2022-07-21T13:46:22;32.52;42.26
73149;SHT30;61346;48.930;2.266;2022-07-21T13:48:47;32.57;41.32
73149;SHT30;61346;48.930;2.266;2022-07-21T13:51:14;32.49;41.53
73149;SHT30;61346;48.930;2.266;2022-07-21T13:53:41;32.27;41.34
73149;SHT30;61346;48.930;2.266;2022-07-21T13:56:07;32.16;42.04
73149;SHT30;61346;48.930;2.266;2022-07-21T13:58:33;32.22;42.55
73149;SHT30;61346;48.930;2.266;2022-07-21T14:00:58;32.36;41.81
73149;SHT30;61346;48.930;2.266;2022-07-21T14:03:26;32.47;42.28
73149;SHT30;61346;48.930;2.266;2022-07-21T14:05:51;32.65;42.24
73149;SHT30;61346;48.930;2.266;2022-07-21T14:08:17;32.84;41.94
73149;SHT30;61346;48.930;2.266;2022-07-21T14:10:42;32.75;41.64
73149;SHT30;61346;48.930;2.266;2022-07-21T14:13:08;32.68;41.56
73149;SHT30;61346;48.930;2.266;2022-07-21T14:15:33;32.60;41.00
73149;SHT30;61346;48.930;2.266;2022-07-21T14:18:00;32.56;41.90
73149;SHT30;61346;48.930;2.266;2022-07-21T14:20:25;33.12;42.03
73149;SHT30;61346;48.930;2.266;2022-07-21T14:22:51;34.27;41.02
73149;SHT30;61346;48.930;2.266;2022-07-21T14:25:16;35.24;39.08
73149;SHT30;61346;48.930;2.266;2022-07-21T14:27:49;35.28;37.44
73149;SHT30;61346;48.930;2.266;2022-07-21T14:30:16;35.93;37.24
73149;SHT30;61346;48.930;2.266;2022-07-21T14:32:43;35.78;35.91
73149;SHT30;61346;48.930;2.266;2022-07-21T14:35:09;35.17;37.71
73149;SHT30;61346;48.930;2.266;2022-07-21T14:37:35;34.70;38.63
73149;SHT30;61346;48.930;2.266;2022-07-21T14:40:01;34.46;39.07
73149;SHT30;61346;48.930;2.266;2022-07-21T14:42:26;35.00;38.60
73149;SHT30;61346;48.930;2.266;2022-07-21T14:44:54;35.45;38.21
73149;SHT30;61346;48.930;2.266;2022-07-21T14:47:19;36.03;37.33
73149;SHT30;61346;48.930;2.266;2022-07-21T14:49:45;37.16;36.50
73149;SHT30;61346;48.930;2.266;2022-07-21T14:52:10;37.67;35.16
73149;SHT30;61346;48.930;2.266;2022-07-21T14:54:36;37.37;33.71
73149;SHT30;61346;48.930;2.266;2022-07-21T14:57:03;36.84;35.93
73149;SHT30;61346;48.930;2.266;2022-07-21T14:59:29;36.60;36.25
73149;SHT30;61346;48.930;2.266;2022-07-21T15:01:54;36.29;36.34
73149;SHT30;61346;48.930;2.266;2022-07-21T15:04:20;36.00;36.67
73149;SHT30;61346;48.930;2.266;2022-07-21T15:06:47;35.74;36.92
73149;SHT30;61346;48.930;2.266;2022-07-21T15:09:12;35.89;36.68
73149;SHT30;61346;48.930;2.266;2022-07-21T15:11:38;35.62;37.27
73149;SHT30;61346;48.930;2.266;2022-07-21T15:14:04;35.20;37.20
73149;SHT30;61346;48.930;2.266;2022-07-21T15:16:29;34.84;37.80
73149;SHT30;61346;48.930;2.266;2022-07-21T15:18:55;34.46;38.03
73149;SHT30;61346;48.930;2.266;2022-07-21T15:21:20;34.21;38.31
73149;SHT30;61346;48.930;2.266;2022-07-21T15:23:46;34.12;38.49
73149;SHT30;61346;48.930;2.266;2022-07-21T15:26:11;34.02;38.36
73149;SHT30;61346;48.930;2.266;2022-07-21T15:28:37;33.93;38.56
73149;SHT30;61346;48.930;2.266;2022-07-21T15:31:02;33.83;39.01
73149;SHT30;61346;48.930;2.266;2022-07-21T15:33:28;33.83;38.95
73149;SHT30;61346;48.930;2.266;2022-07-21T15:35:53;33.81;38.96
73149;SHT30;61346;48.930;2.266;2022-07-21T15:38:20;33.84;39.18
73149;SHT30;61346;48.930;2.266;2022-07-21T15:40:46;33.76;37.19
73149;SHT30;61346;48.930;2.266;2022-07-21T15:43:11;33.53;38.02
73149;SHT30;61346;48.930;2.266;2022-07-21T15:45:40;33.32;38.71
73149;SHT30;61346;48.930;2.266;2022-07-21T15:48:07;33.28;39.11
73149;SHT30;61346;48.930;2.266;2022-07-21T15:50:32;33.33;39.16
73149;SHT30;61346;48.930;2.266;2022-07-21T15:52:58;33.43;38.92
73149;SHT30;61346;48.930;2.266;2022-07-21T15:55:24;33.62;38.62
73149;SHT30;61346;48.930;2.266;2022-07-21T15:57:49;33.53;38.48
73149;SHT30;61346;48.930;2.266;2022-07-21T16:00:15;33.42;38.80